Ship Status Report: callsign MCRJ6

sailwx.info

Track history (hours):
 
Tides and Currents Weather Stations Pressure Air Temp Water Temp Dewpoint Dewpoint Depression Visibility Wind Speed Wind Dir Waves Ship Positions

Callsign MCRJ6 (name unknown)

Last reported at 2019-Jun-04 23:27 UTC. Time now 2019-Jun-17 01:31 UTC.
Position N 55°39' W 005°58'.
Warning: this ship's position is 12 days out of date.

Date/timePositionNaut miles runAvg speedWind from/ knotsBaromVisibWave heightAir tempDewpointWater temp
2019-Jun-04 23:27N 55°39' W 005°58'2 3.2
2019-Jun-04 22:56N 55°38' W 006°00'2 3.6
2019-Jun-04 22:26N 55°37' W 006°03'2 4.0
2019-Jun-04 21:56N 55°36' W 006°06'4 3.7
2019-Jun-04 20:51N 55°38' W 006°12'0 0.0
2019-Jun-04 20:21N 55°38' W 006°12'0 0.0
2019-Jun-04 19:36N 55°38' W 006°12'0 0.0
2019-Jun-04 18:12N 55°38' W 006°12'0 0.0
2019-Jun-04 17:57N 55°38' W 006°12'0 0.0
2019-Jun-04 09:23N 55°38' W 006°12'3 5.3
2019-Jun-04 08:45N 55°34' W 006°13'2 5.8
2019-Jun-04 08:25N 55°33' W 006°14'2 4.5
2019-Jun-04 08:00N 55°31' W 006°16'2 3.5
2019-Jun-04 07:30N 55°29' W 006°17'2 4.1
2019-Jun-04 07:00N 55°27' W 006°17'45 6.8
2019-Jun-04 00:25N 54°51' W 005°31'3 6.2
2019-Jun-04 00:00N 54°49' W 005°29'3 5.9
2019-Jun-03 23:27N 54°46' W 005°26'3 5.5
2019-Jun-03 22:58N 54°43' W 005°25'3 5.2
2019-Jun-03 22:27N 54°41' W 005°24'2 5.0
2019-Jun-03 22:00N 54°38' W 005°25'3 5.1
2019-Jun-03 21:30N 54°36' W 005°23'2 4.7
2019-Jun-03 20:59N 54°34' W 005°22'82 5.0
2019-Jun-03 04:32N 53°40' W 003°35'3 6.0
2019-Jun-03 04:05N 53°39' W 003°31'1 5.8
2019-Jun-03 03:57N 53°38' W 003°30'3 5.8
2019-Jun-03 03:30N 53°37' W 003°26'3 5.4
2019-Jun-03 03:00N 53°35' W 003°23'2 4.6
2019-Jun-03 02:30N 53°34' W 003°19'2 4.8
2019-Jun-03 02:00N 53°32' W 003°16'2 3.8
2019-Jun-03 01:30N 53°31' W 003°13'2 4.3
2019-Jun-03 01:00N 53°32' W 003°10'2 4.8
2019-Jun-03 00:30N 53°31' W 003°06'3 6.6
2019-Jun-03 00:00N 53°28' W 003°03'3 7.1
2019-Jun-02 23:31N 53°25' W 003°01'1 2.2
2019-Jun-02 23:00N 53°24' W 002°60'0 0.7
2019-Jun-02 22:30N 53°24' W 002°59'0 0.0
2019-Jun-02 22:00N 53°24' W 002°59'0 0.0
2019-Jun-02 21:30N 53°24' W 002°59'0 0.0
2019-Jun-02 20:59N 53°24' W 002°59'0 0.0
2019-Jun-02 20:29N 53°24' W 002°59'0 0.0
2019-Jun-02 19:59N 53°24' W 002°59'0 0.0
2019-Jun-02 19:29N 53°24' W 002°59'0 0.0
2019-Jun-02 18:53N 53°24' W 002°59'0 0.0
2019-Jun-02 18:29N 53°24' W 002°59'0 0.0
2019-Jun-02 17:59N 53°24' W 002°59'0 0.0
2019-Jun-02 17:26N 53°24' W 002°59'0 0.0
2019-Jun-02 16:53N 53°24' W 002°59'0 0.0
2019-Jun-02 16:27N 53°24' W 002°59'0 0.0
2019-Jun-02 16:00N 53°24' W 002°59'0 0.0
2019-Jun-02 15:30N 53°24' W 002°59'0 0.0
2019-Jun-02 15:00N 53°24' W 002°59'0 0.0
2019-Jun-02 14:30N 53°24' W 002°59'0 0.0
2019-Jun-02 14:00N 53°24' W 002°59'0 0.0
2019-Jun-02 13:30N 53°24' W 002°59'0 0.0
2019-Jun-02 13:00N 53°24' W 002°59'0 0.0
2019-Jun-02 12:30N 53°24' W 002°59'0 0.0
2019-Jun-02 12:00N 53°24' W 002°59'0 0.0
2019-Jun-02 11:27N 53°24' W 002°59'0 0.0
2019-Jun-02 10:57N 53°24' W 002°59'0 0.0
2019-Jun-02 10:30N 53°24' W 002°59'0 0.0
2019-Jun-02 10:00N 53°24' W 002°59'0 0.0
2019-Jun-02 09:30N 53°24' W 002°59'0 0.0
2019-Jun-02 09:00N 53°24' W 002°59'0 0.0
2019-Jun-02 08:30N 53°24' W 002°59'0 0.0
2019-Jun-02 08:00N 53°24' W 002°59'0 0.0
2019-Jun-02 07:30N 53°24' W 002°59'0 0.0
2019-Jun-02 07:00N 53°24' W 002°59'0 0.0
2019-Jun-02 06:30N 53°24' W 002°59'0 0.0
2019-Jun-02 06:00N 53°24' W 002°59'0 0.0
2019-Jun-02 05:30N 53°24' W 002°59'0 0.0
2019-Jun-02 05:00N 53°24' W 002°59'0 0.0
2019-Jun-02 04:30N 53°24' W 002°59'0 0.0
2019-Jun-02 04:00N 53°24' W 002°59'0 0.0
2019-Jun-02 03:30N 53°24' W 002°59'0 0.0
2019-Jun-02 03:00N 53°24' W 002°59'0 0.0
2019-Jun-02 02:30N 53°24' W 002°59'0 0.0
2019-Jun-02 02:00N 53°24' W 002°59'0 0.0
2019-Jun-02 01:30N 53°24' W 002°59'0 0.0
2019-Jun-02 00:57N 53°24' W 002°59'0 0.0
2019-Jun-02 00:30N 53°24' W 002°59'0 0.0
2019-Jun-02 00:00N 53°24' W 002°59'0 0.0
2019-Jun-01 23:27N 53°24' W 002°59'0 0.0
2019-Jun-01 23:00N 53°24' W 002°59'0 0.0
2019-Jun-01 22:30N 53°24' W 002°59'0 0.0
2019-Jun-01 22:00N 53°24' W 002°59'0 0.0
2019-Jun-01 21:30N 53°24' W 002°59'0 0.0
2019-Jun-01 21:00N 53°24' W 002°59'0 0.0
2019-Jun-01 20:30N 53°24' W 002°59'0 0.0
2019-Jun-01 20:00N 53°24' W 002°59'0 0.0
2019-Jun-01 19:30N 53°24' W 002°59'0 0.0
2019-Jun-01 19:00N 53°24' W 002°59'0 0.0
2019-Jun-01 18:30N 53°24' W 002°59'0 0.0
2019-Jun-01 18:00N 53°24' W 002°59'0 0.0
2019-Jun-01 17:30N 53°24' W 002°59'0 0.0
2019-Jun-01 17:00N 53°24' W 002°59'0 0.0
2019-Jun-01 16:30N 53°24' W 002°59'0 0.0
2019-Jun-01 16:00N 53°24' W 002°59'0 0.0
2019-Jun-01 15:30N 53°24' W 002°59'0 0.0
2019-Jun-01 15:00N 53°24' W 002°59'0 0.0
2019-Jun-01 14:27N 53°24' W 002°59'0 0.0
2019-Jun-01 14:00N 53°24' W 002°59'0 0.0
2019-Jun-01 13:30N 53°24' W 002°59'0 0.0
2019-Jun-01 13:00N 53°24' W 002°59'0 0.0
2019-Jun-01 12:30N 53°24' W 002°59'0 0.0
2019-Jun-01 12:00N 53°24' W 002°59'0 0.0
2019-Jun-01 11:30N 53°24' W 002°59'0 0.0
2019-Jun-01 11:00N 53°24' W 002°59'0 0.0
2019-Jun-01 10:30N 53°24' W 002°59'0 0.0
2019-Jun-01 10:00N 53°24' W 002°59'0 0.0
2019-Jun-01 09:24N 53°24' W 002°59'0 0.0
2019-Jun-01 09:00N 53°24' W 002°59'0 0.0
2019-Jun-01 08:30N 53°24' W 002°59'0 0.0
2019-Jun-01 08:00N 53°24' W 002°59'0 0.0
2019-Jun-01 07:24N 53°24' W 002°59'0 0.0
2019-Jun-01 07:00N 53°24' W 002°59'0 0.0
2019-Jun-01 06:30N 53°24' W 002°59'0 0.0
2019-Jun-01 06:00N 53°24' W 002°59'0 0.0
2019-Jun-01 05:30N 53°24' W 002°59'0 0.0
2019-Jun-01 05:00N 53°24' W 002°59'0 0.0
2019-Jun-01 04:30N 53°24' W 002°59'0 0.0
2019-Jun-01 03:54N 53°24' W 002°59'0 0.0
2019-Jun-01 03:27N 53°24' W 002°59'0 0.0
2019-Jun-01 03:00N 53°24' W 002°59'0 0.0
2019-Jun-01 02:24N 53°24' W 002°59'0 0.0
2019-Jun-01 02:00N 53°24' W 002°59'0 0.0
2019-Jun-01 01:30N 53°24' W 002°59'0 0.0
2019-Jun-01 01:00N 53°24' W 002°59'0 0.0
2019-Jun-01 00:24N 53°24' W 002°59'0 0.0
2019-Jun-01 00:00N 53°24' W 002°59'0 0.0
2019-May-31 23:30N 53°24' W 002°59'0 0.0
2019-May-31 22:57N 53°24' W 002°59'0 0.0
2019-May-31 22:27N 53°24' W 002°59'0 0.0
2019-May-31 22:00N 53°24' W 002°59'0 0.0
2019-May-31 21:30N 53°24' W 002°59'0 0.0
2019-May-31 20:51N 53°24' W 002°59'0 0.0
2019-May-31 20:30N 53°24' W 002°59'0 0.0
2019-May-31 20:00N 53°24' W 002°59'0 0.0
2019-May-31 19:21N 53°24' W 002°59'0 0.0
2019-May-31 19:00N 53°24' W 002°59'0 0.0
2019-May-31 18:30N 53°24' W 002°59'0 0.0
2019-May-31 17:57N 53°24' W 002°59'0 0.0
2019-May-31 17:24N 53°24' W 002°59'0 0.0
2019-May-31 17:00N 53°24' W 002°59'0 0.0
2019-May-31 16:30N 53°24' W 002°59'0 0.0
2019-May-31 16:00N 53°24' W 002°59'0 0.0
2019-May-31 15:26N 53°24' W 002°59'0 0.0
2019-May-31 15:00N 53°24' W 002°59'0 0.0
2019-May-31 14:30N 53°24' W 002°59'0 0.0
2019-May-31 14:00N 53°24' W 002°59'0 0.0
2019-May-31 13:30N 53°24' W 002°59'0 0.0
2019-May-31 13:00N 53°24' W 002°59'0 0.0
2019-May-31 12:27N 53°24' W 002°59'0 0.0
2019-May-31 12:00N 53°24' W 002°59'0 0.0
2019-May-31 11:30N 53°24' W 002°59'0 0.0
2019-May-31 11:00N 53°24' W 002°59'0 0.0
2019-May-31 10:30N 53°24' W 002°59'0 0.0
2019-May-31 10:00N 53°24' W 002°59'0 0.0
2019-May-31 09:30N 53°24' W 002°59'0 0.0
2019-May-31 08:57N 53°24' W 002°59'0 0.0
2019-May-31 08:30N 53°24' W 002°59'0 0.0
2019-May-31 08:00N 53°24' W 002°59'0 0.0
2019-May-31 07:30N 53°24' W 002°59'0 0.0
2019-May-31 07:00N 53°24' W 002°59'0 0.0
2019-May-31 06:30N 53°24' W 002°59'0 0.0
2019-May-31 06:00N 53°24' W 002°59'0 0.0
2019-May-31 05:30N 53°24' W 002°59'0 0.0
2019-May-31 05:00N 53°24' W 002°59'0 0.0
2019-May-31 04:30N 53°24' W 002°59'0 0.0
2019-May-31 04:00N 53°24' W 002°59'0 0.0
2019-May-31 03:21N 53°24' W 002°59'0 0.0
2019-May-31 03:00N 53°24' W 002°59'0 0.0
2019-May-31 02:30N 53°24' W 002°59'0 0.0
2019-May-31 02:00N 53°24' W 002°59'0 0.0
2019-May-31 01:30N 53°24' W 002°59'0 0.0
2019-May-31 01:00N 53°24' W 002°59'0 0.0
2019-May-31 00:30N 53°24' W 002°59'0 0.0
2019-May-31 00:00N 53°24' W 002°59'0 0.0
2019-May-30 23:24N 53°24' W 002°59'0 0.0
2019-May-30 23:00N 53°24' W 002°59'0 0.0
2019-May-30 22:30N 53°24' W 002°59'0 0.0
2019-May-30 22:00N 53°24' W 002°59'0 0.0
2019-May-30 21:30N 53°24' W 002°59'0 0.0
2019-May-30 21:00N 53°24' W 002°59'0 0.0
2019-May-30 20:30N 53°24' W 002°59'0 0.0
2019-May-30 20:00N 53°24' W 002°59'0 0.0
2019-May-30 19:24N 53°24' W 002°59'0 0.0
2019-May-30 19:00N 53°24' W 002°59'0 0.0
2019-May-30 18:30N 53°24' W 002°59'0 0.0
2019-May-30 18:00N 53°24' W 002°59'0 0.0
2019-May-30 17:30N 53°24' W 002°59'0 0.0
2019-May-30 16:57N 53°24' W 002°59'0 0.0
2019-May-30 16:27N 53°24' W 002°59'0 0.0
2019-May-30 16:00N 53°24' W 002°59'0 0.0
2019-May-30 15:24N 53°24' W 002°59'0 0.0
2019-May-30 14:57N 53°24' W 002°59'0 0.0
2019-May-30 14:27N 53°24' W 002°59'0 0.0
2019-May-30 13:57N 53°24' W 002°59'0 0.0
2019-May-30 13:27N 53°24' W 002°59'0 0.0
2019-May-30 13:00N 53°24' W 002°59'0 0.0
2019-May-30 12:27N 53°24' W 002°59'0 0.0
2019-May-30 11:54N 53°24' W 002°59'0 0.0
2019-May-30 11:25N 53°24' W 002°59'0 0.0
2019-May-30 10:55N 53°24' W 002°59'0 0.0
2019-May-30 10:25N 53°24' W 002°59'0 0.0
2019-May-30 09:55N 53°24' W 002°59'0 0.0
2019-May-30 09:25N 53°24' W 002°59'0 0.0
2019-May-30 08:55N 53°24' W 002°59'0 0.0
2019-May-30 08:28N 53°24' W 002°59'0 0.0
2019-May-30 07:58N 53°24' W 002°59'0 0.0
2019-May-30 07:25N 53°24' W 002°59'0 0.0
2019-May-30 06:49N 53°24' W 002°59'0 0.0
2019-May-30 06:13N 53°24' W 002°59'0 0.0
2019-May-30 05:55N 53°24' W 002°59'0 0.0
2019-May-30 05:16N 53°24' W 002°59'0 0.0
2019-May-30 04:58N 53°24' W 002°59'0 0.0
2019-May-30 04:07N 53°24' W 002°59'0 0.0
2019-May-30 03:58N 53°24' W 002°59'0 0.0
2019-May-30 03:28N 53°24' W 002°59'0 0.0
2019-May-30 02:55N 53°24' W 002°59'0 0.0
2019-May-30 02:19N 53°24' W 002°59'0 0.0
2019-May-30 01:55N 53°24' W 002°59'0 0.0
2019-May-30 01:25N 53°24' W 002°59'0 0.0
2019-May-30 00:58N 53°24' W 002°59'0 0.0
2019-May-30 00:28N 53°24' W 002°59'0 0.0
2019-May-29 23:55N 53°24' W 002°59'0 0.0
2019-May-29 23:28N 53°24' W 002°59'0 0.0
2019-May-29 22:58N 53°24' W 002°59'0 0.0
2019-May-29 22:28N 53°24' W 002°59'0 0.0
2019-May-29 21:55N 53°24' W 002°59'0 0.0
2019-May-29 21:28N 53°24' W 002°59'0 0.0
2019-May-29 20:58N 53°24' W 002°59'0 0.0
2019-May-29 20:28N 53°24' W 002°59'0 0.0
2019-May-29 19:58N 53°24' W 002°59'0 0.0
2019-May-29 19:28N 53°24' W 002°59'0 0.0
2019-May-29 18:58N 53°24' W 002°59'0 0.0
2019-May-29 18:25N 53°24' W 002°59'0 0.0
2019-May-29 17:58N 53°24' W 002°59'0 0.0
2019-May-29 17:25N 53°24' W 002°59'0 0.0
2019-May-29 16:58N 53°24' W 002°59'0 0.0
2019-May-29 16:25N 53°24' W 002°59'0 0.0
2019-May-29 15:58N 53°24' W 002°59'0 0.0
2019-May-29 15:28N 53°24' W 002°59'0 0.0
2019-May-29 14:49N 53°24' W 002°59'0 0.0
2019-May-29 14:28N 53°24' W 002°59'0 0.0
2019-May-29 13:49N 53°24' W 002°59'0 0.0
2019-May-29 13:28N 53°24' W 002°59'0 0.0
2019-May-29 12:58N 53°24' W 002°59'0 0.0
2019-May-29 12:28N 53°24' W 002°59'0 0.0
2019-May-29 11:58N 53°24' W 002°59'0 0.0
2019-May-29 11:25N 53°24' W 002°59'0 0.0
2019-May-29 10:58N 53°24' W 002°59'0 0.0
2019-May-29 10:28N 53°24' W 002°59'0 0.0
2019-May-29 09:58N 53°24' W 002°59'0 0.0
2019-May-29 09:28N 53°24' W 002°59'0 0.0
2019-May-29 08:58N 53°24' W 002°59'0 0.0
2019-May-29 08:28N 53°24' W 002°59'0 0.0
2019-May-29 07:58N 53°24' W 002°59'0 0.0
2019-May-29 07:28N 53°24' W 002°59'0 0.0
2019-May-29 06:58N 53°24' W 002°59'0 0.0
2019-May-29 06:28N 53°24' W 002°59'0 0.0
2019-May-29 05:58N 53°24' W 002°59'0 0.0
2019-May-29 05:28N 53°24' W 002°59'0 0.0
2019-May-29 04:58N 53°24' W 002°59'0 0.0
2019-May-29 04:28N 53°24' W 002°59'0 0.0
2019-May-29 03:55N 53°24' W 002°59'0 0.0
2019-May-29 03:28N 53°24' W 002°59'0 0.0
2019-May-29 02:58N 53°24' W 002°59'0 0.0
2019-May-29 02:25N 53°24' W 002°59'0 0.0
2019-May-29 01:58N 53°24' W 002°59'0 0.0
2019-May-29 01:28N 53°24' W 002°59'0 0.0
2019-May-29 00:58N 53°24' W 002°59'0 0.0
2019-May-29 00:28N 53°24' W 002°59'0 0.0
2019-May-28 23:55N 53°24' W 002°59'0 0.0
2019-May-28 23:28N 53°24' W 002°59'0 0.0
2019-May-28 22:58N 53°24' W 002°59'0 0.0
2019-May-28 22:28N 53°24' W 002°59'0 0.0
2019-May-28 21:55N 53°24' W 002°59'0 0.0
2019-May-28 21:28N 53°24' W 002°59'0 0.0
2019-May-28 20:58N 53°24' W 002°59'0 0.0
2019-May-28 20:25N 53°24' W 002°59'0 0.0
2019-May-28 19:58N 53°24' W 002°59'0 0.0
2019-May-28 19:28N 53°24' W 002°59'0 0.0
2019-May-28 18:58N 53°24' W 002°59'0 0.0
2019-May-28 18:25N 53°24' W 002°59'0 0.0
2019-May-28 17:58N 53°24' W 002°59'0 0.0
2019-May-28 17:28N 53°24' W 002°59'0 0.0
2019-May-28 16:58N 53°24' W 002°59'0 0.0
2019-May-28 16:28N 53°24' W 002°59'0 0.0
2019-May-28 15:58N 53°24' W 002°59'0 0.0
2019-May-28 15:28N 53°24' W 002°59'0 0.0
2019-May-28 14:58N 53°24' W 002°59'0 0.0
2019-May-28 14:28N 53°24' W 002°59'0 0.0
2019-May-28 13:58N 53°24' W 002°59'0 0.0
2019-May-28 13:28N 53°24' W 002°59'0 0.0
2019-May-28 12:55N 53°24' W 002°59'0 0.0
2019-May-28 12:22N 53°24' W 002°59'0 0.0
2019-May-28 11:58N 53°24' W 002°59'0 0.0
2019-May-28 11:22N 53°24' W 002°59'0 0.0
2019-May-28 10:58N 53°24' W 002°59'0 0.0
2019-May-28 10:28N 53°24' W 002°59'0 0.0
2019-May-28 09:58N 53°24' W 002°59'0 0.0
2019-May-28 09:28N 53°24' W 002°59'0 0.0
2019-May-28 08:49N 53°24' W 002°59'0 0.0
2019-May-28 08:19N 53°24' W 002°59'0 0.0
2019-May-28 07:43N 53°24' W 002°59'0 0.0
2019-May-28 07:28N 53°24' W 002°59'0 0.0
2019-May-28 06:37N 53°24' W 002°59'0 0.0
2019-May-28 06:28N 53°24' W 002°59'0 0.0
2019-May-28 05:58N 53°24' W 002°59'0 0.0
2019-May-28 05:19N 53°24' W 002°59'0 0.0
2019-May-28 04:52N 53°24' W 002°59'0 0.0
2019-May-28 04:22N 53°24' W 002°59'0 0.0
2019-May-28 03:58N 53°24' W 002°59'0 0.0
2019-May-28 03:28N 53°24' W 002°59'0 0.0
2019-May-28 02:58N 53°24' W 002°59'0 0.0
2019-May-28 02:22N 53°24' W 002°59'0 0.0
2019-May-28 01:49N 53°24' W 002°59'0 0.0
2019-May-28 01:22N 53°24' W 002°59'0 0.0
2019-May-28 00:52N 53°24' W 002°59'0 0.0
2019-May-28 00:25N 53°24' W 002°59'0 0.0
2019-May-27 23:52N 53°24' W 002°59'0 0.0
2019-May-27 23:28N 53°24' W 002°59'0 0.0
2019-May-27 22:52N 53°24' W 002°59'0 0.0
2019-May-27 22:28N 53°24' W 002°59'0 0.0
2019-May-27 21:58N 53°24' W 002°59'0 0.0
2019-May-27 21:28N 53°24' W 002°59'0 0.0
2019-May-27 20:58N 53°24' W 002°59'0 0.0
2019-May-27 20:13N 53°24' W 002°59'0 0.0
2019-May-27 19:58N 53°24' W 002°59'0 0.0
2019-May-27 19:28N 53°24' W 002°59'0 0.0
2019-May-27 18:58N 53°24' W 002°59'0 0.0
2019-May-27 18:28N 53°24' W 002°59'0 0.0
2019-May-27 17:58N 53°24' W 002°59'0 0.0
2019-May-27 17:28N 53°24' W 002°59'0 0.0
2019-May-27 16:46N 53°24' W 002°59'0 0.0
2019-May-27 16:28N 53°24' W 002°59'0 0.0
2019-May-27 15:46N 53°24' W 002°59'0 0.0
2019-May-27 15:28N 53°24' W 002°59'0 0.0
2019-May-27 14:58N 53°24' W 002°59'0 0.0
2019-May-27 14:22N 53°24' W 002°59'0 0.0
2019-May-27 13:55N 53°24' W 002°59'0 0.0
2019-May-27 13:22N 53°24' W 002°59'0 0.0
2019-May-27 12:58N 53°24' W 002°59'0 0.0
2019-May-27 12:28N 53°24' W 002°59'0 0.0
2019-May-27 11:55N 53°24' W 002°59'0 0.0
2019-May-27 11:28N 53°24' W 002°59'0 0.0
2019-May-27 10:43N 53°24' W 002°59'0 0.0
2019-May-27 10:19N 53°24' W 002°59'0 0.0
2019-May-27 09:58N 53°24' W 002°59'0 0.0
2019-May-27 09:22N 53°24' W 002°59'0 0.0
2019-May-27 08:58N 53°24' W 002°59'0 0.0
2019-May-27 08:19N 53°24' W 002°59'0 0.0
2019-May-27 07:55N 53°24' W 002°59'0 0.0
2019-May-27 07:25N 53°24' W 002°59'0 0.0
2019-May-27 06:58N 53°24' W 002°59'0 0.0
2019-May-27 06:28N 53°24' W 002°59'0 0.0
2019-May-27 05:58N 53°24' W 002°59'0 0.0
2019-May-27 05:28N 53°24' W 002°59'0 0.0
2019-May-27 04:58N 53°24' W 002°59'0 0.0
2019-May-27 04:25N 53°24' W 002°59'0 0.0
2019-May-27 03:58N 53°24' W 002°59'0 0.0
2019-May-27 03:28N 53°24' W 002°59'0 0.0
2019-May-27 02:58N 53°24' W 002°59'0 0.0
2019-May-27 02:25N 53°24' W 002°59'0 0.0
2019-May-27 01:55N 53°24' W 002°59'0 0.0
2019-May-27 01:28N 53°24' W 002°59'0 0.0
2019-May-27 00:55N 53°24' W 002°59'0 0.0
2019-May-27 00:25N 53°24' W 002°59'0 0.0
2019-May-26 23:58N 53°24' W 002°59'0 0.0
2019-May-26 23:25N 53°24' W 002°59'0 0.0
2019-May-26 22:58N 53°24' W 002°59'0 0.0
2019-May-26 22:25N 53°24' W 002°59'0 0.0
2019-May-26 21:55N 53°24' W 002°59'0 0.0
2019-May-26 21:25N 53°24' W 002°59'0 0.0
2019-May-26 20:55N 53°24' W 002°59'0 0.0
2019-May-26 20:25N 53°24' W 002°59'0 0.0
2019-May-26 19:58N 53°24' W 002°59'0 0.0
2019-May-26 19:25N 53°24' W 002°59'0 0.0
2019-May-26 18:58N 53°24' W 002°59'0 0.0
2019-May-26 18:28N 53°24' W 002°59'0 0.0
2019-May-26 17:58N 53°24' W 002°59'0 0.0
2019-May-26 17:28N 53°24' W 002°59'0 0.0
2019-May-26 16:55N 53°24' W 002°59'0 0.0
2019-May-26 16:28N 53°24' W 002°59'0 0.0
2019-May-26 15:55N 53°24' W 002°59'0 0.0
2019-May-26 15:25N 53°24' W 002°59'0 0.0
2019-May-26 14:58N 53°24' W 002°59'0 0.0
2019-May-26 14:28N 53°24' W 002°59'0 0.0
2019-May-26 13:55N 53°24' W 002°59'0 0.0
2019-May-26 13:28N 53°24' W 002°59'0 0.0
2019-May-26 12:58N 53°24' W 002°59'0 0.0
2019-May-26 12:28N 53°24' W 002°59'0 0.0
2019-May-26 11:34N 53°24' W 002°59'0 0.0
2019-May-26 11:28N 53°24' W 002°59'0 0.0
2019-May-26 10:55N 53°24' W 002°59'0 0.0
2019-May-26 10:28N 53°24' W 002°59'0 0.0
2019-May-26 09:58N 53°24' W 002°59'0 0.0
2019-May-26 09:28N 53°24' W 002°59'0 0.0
2019-May-26 08:52N 53°24' W 002°59'0 0.0
2019-May-26 08:28N 53°24' W 002°59'0 0.0
2019-May-26 07:58N 53°24' W 002°59'0 0.0
2019-May-26 07:22N 53°24' W 002°59'0 0.0
2019-May-26 06:58N 53°24' W 002°59'0 0.0
2019-May-26 06:28N 53°24' W 002°59'0 0.0
2019-May-26 05:58N 53°24' W 002°59'0 0.0
2019-May-26 05:22N 53°24' W 002°59'0 0.0
2019-May-26 04:58N 53°24' W 002°59'0 0.0
2019-May-26 04:28N 53°24' W 002°59'0 0.0
2019-May-26 03:58N 53°24' W 002°59'0 0.0
2019-May-26 03:16N 53°24' W 002°59'0 0.0
2019-May-26 02:55N 53°24' W 002°59'0 0.0
2019-May-26 02:16N 53°24' W 002°59'0 0.0
2019-May-26 01:28N 53°24' W 002°59'0 0.0
2019-May-26 00:58N 53°24' W 002°59'0 0.0
2019-May-26 00:28N 53°24' W 002°59'0 0.0
2019-May-25 23:55N 53°24' W 002°59'  
Track history (hours):
 
Tides and Currents Weather Stations Pressure Air Temp Water Temp Dewpoint Dewpoint Depression Visibility Wind Speed Wind Dir Waves Ship Positions

Callsign MCRJ6 (name unknown)

Last reported at 2019-Jun-04 23:27 UTC. Time now 2019-Jun-17 01:31 UTC.
Position N 55°39' W 005°58'.
Warning: this ship's position is 12 days out of date.

Date/timePositionNaut miles runAvg speedWind from/ knotsBaromVisibWave heightAir tempDewpointWater temp
2019-Jun-04 23:27N 55°39' W 005°58'2 3.2
2019-Jun-04 22:56N 55°38' W 006°00'2 3.6
2019-Jun-04 22:26N 55°37' W 006°03'2 4.0
2019-Jun-04 21:56N 55°36' W 006°06'4 3.7
2019-Jun-04 20:51N 55°38' W 006°12'0 0.0
2019-Jun-04 20:21N 55°38' W 006°12'0 0.0
2019-Jun-04 19:36N 55°38' W 006°12'0 0.0
2019-Jun-04 18:12N 55°38' W 006°12'0 0.0
2019-Jun-04 17:57N 55°38' W 006°12'0 0.0
2019-Jun-04 09:23N 55°38' W 006°12'3 5.3
2019-Jun-04 08:45N 55°34' W 006°13'2 5.8
2019-Jun-04 08:25N 55°33' W 006°14'2 4.5
2019-Jun-04 08:00N 55°31' W 006°16'2 3.5
2019-Jun-04 07:30N 55°29' W 006°17'2 4.1
2019-Jun-04 07:00N 55°27' W 006°17'45 6.8
2019-Jun-04 00:25N 54°51' W 005°31'3 6.2
2019-Jun-04 00:00N 54°49' W 005°29'3 5.9
2019-Jun-03 23:27N 54°46' W 005°26'3 5.5
2019-Jun-03 22:58N 54°43' W 005°25'3 5.2
2019-Jun-03 22:27N 54°41' W 005°24'2 5.0
2019-Jun-03 22:00N 54°38' W 005°25'3 5.1
2019-Jun-03 21:30N 54°36' W 005°23'2 4.7
2019-Jun-03 20:59N 54°34' W 005°22'82 5.0
2019-Jun-03 04:32N 53°40' W 003°35'3 6.0
2019-Jun-03 04:05N 53°39' W 003°31'1 5.8
2019-Jun-03 03:57N 53°38' W 003°30'3 5.8
2019-Jun-03 03:30N 53°37' W 003°26'3 5.4
2019-Jun-03 03:00N 53°35' W 003°23'2 4.6
2019-Jun-03 02:30N 53°34' W 003°19'2 4.8
2019-Jun-03 02:00N 53°32' W 003°16'2 3.8
2019-Jun-03 01:30N 53°31' W 003°13'2 4.3
2019-Jun-03 01:00N 53°32' W 003°10'2 4.8
2019-Jun-03 00:30N 53°31' W 003°06'3 6.6
2019-Jun-03 00:00N 53°28' W 003°03'3 7.1
2019-Jun-02 23:31N 53°25' W 003°01'1 2.2
2019-Jun-02 23:00N 53°24' W 002°60'0 0.7
2019-Jun-02 22:30N 53°24' W 002°59'0 0.0
2019-Jun-02 22:00N 53°24' W 002°59'0 0.0
2019-Jun-02 21:30N 53°24' W 002°59'0 0.0
2019-Jun-02 20:59N 53°24' W 002°59'0 0.0
2019-Jun-02 20:29N 53°24' W 002°59'0 0.0
2019-Jun-02 19:59N 53°24' W 002°59'0 0.0
2019-Jun-02 19:29N 53°24' W 002°59'0 0.0
2019-Jun-02 18:53N 53°24' W 002°59'0 0.0
2019-Jun-02 18:29N 53°24' W 002°59'0 0.0
2019-Jun-02 17:59N 53°24' W 002°59'0 0.0
2019-Jun-02 17:26N 53°24' W 002°59'0 0.0
2019-Jun-02 16:53N 53°24' W 002°59'0 0.0
2019-Jun-02 16:27N 53°24' W 002°59'0 0.0
2019-Jun-02 16:00N 53°24' W 002°59'0 0.0
2019-Jun-02 15:30N 53°24' W 002°59'0 0.0
2019-Jun-02 15:00N 53°24' W 002°59'0 0.0
2019-Jun-02 14:30N 53°24' W 002°59'0 0.0
2019-Jun-02 14:00N 53°24' W 002°59'0 0.0
2019-Jun-02 13:30N 53°24' W 002°59'0 0.0
2019-Jun-02 13:00N 53°24' W 002°59'0 0.0
2019-Jun-02 12:30N 53°24' W 002°59'0 0.0
2019-Jun-02 12:00N 53°24' W 002°59'0 0.0
2019-Jun-02 11:27N 53°24' W 002°59'0 0.0
2019-Jun-02 10:57N 53°24' W 002°59'0 0.0
2019-Jun-02 10:30N 53°24' W 002°59'0 0.0
2019-Jun-02 10:00N 53°24' W 002°59'0 0.0
2019-Jun-02 09:30N 53°24' W 002°59'0 0.0
2019-Jun-02 09:00N 53°24' W 002°59'0 0.0
2019-Jun-02 08:30N 53°24' W 002°59'0 0.0
2019-Jun-02 08:00N 53°24' W 002°59'0 0.0
2019-Jun-02 07:30N 53°24' W 002°59'0 0.0
2019-Jun-02 07:00N 53°24' W 002°59'0 0.0
2019-Jun-02 06:30N 53°24' W 002°59'0 0.0
2019-Jun-02 06:00N 53°24' W 002°59'0 0.0
2019-Jun-02 05:30N 53°24' W 002°59'0 0.0
2019-Jun-02 05:00N 53°24' W 002°59'0 0.0
2019-Jun-02 04:30N 53°24' W 002°59'0 0.0
2019-Jun-02 04:00N 53°24' W 002°59'0 0.0
2019-Jun-02 03:30N 53°24' W 002°59'0 0.0
2019-Jun-02 03:00N 53°24' W 002°59'0 0.0
2019-Jun-02 02:30N 53°24' W 002°59'0 0.0
2019-Jun-02 02:00N 53°24' W 002°59'0 0.0
2019-Jun-02 01:30N 53°24' W 002°59'0 0.0
2019-Jun-02 00:57N 53°24' W 002°59'0 0.0
2019-Jun-02 00:30N 53°24' W 002°59'0 0.0
2019-Jun-02 00:00N 53°24' W 002°59'0 0.0
2019-Jun-01 23:27N 53°24' W 002°59'0 0.0
2019-Jun-01 23:00N 53°24' W 002°59'0 0.0
2019-Jun-01 22:30N 53°24' W 002°59'0 0.0
2019-Jun-01 22:00N 53°24' W 002°59'0 0.0
2019-Jun-01 21:30N 53°24' W 002°59'0 0.0
2019-Jun-01 21:00N 53°24' W 002°59'0 0.0
2019-Jun-01 20:30N 53°24' W 002°59'0 0.0
2019-Jun-01 20:00N 53°24' W 002°59'0 0.0
2019-Jun-01 19:30N 53°24' W 002°59'0 0.0
2019-Jun-01 19:00N 53°24' W 002°59'0 0.0
2019-Jun-01 18:30N 53°24' W 002°59'0 0.0
2019-Jun-01 18:00N 53°24' W 002°59'0 0.0
2019-Jun-01 17:30N 53°24' W 002°59'0 0.0
2019-Jun-01 17:00N 53°24' W 002°59'0 0.0
2019-Jun-01 16:30N 53°24' W 002°59'0 0.0
2019-Jun-01 16:00N 53°24' W 002°59'0 0.0
2019-Jun-01 15:30N 53°24' W 002°59'0 0.0
2019-Jun-01 15:00N 53°24' W 002°59'0 0.0
2019-Jun-01 14:27N 53°24' W 002°59'0 0.0
2019-Jun-01 14:00N 53°24' W 002°59'0 0.0
2019-Jun-01 13:30N 53°24' W 002°59'0 0.0
2019-Jun-01 13:00N 53°24' W 002°59'0 0.0
2019-Jun-01 12:30N 53°24' W 002°59'0 0.0
2019-Jun-01 12:00N 53°24' W 002°59'0 0.0
2019-Jun-01 11:30N 53°24' W 002°59'0 0.0
2019-Jun-01 11:00N 53°24' W 002°59'0 0.0
2019-Jun-01 10:30N 53°24' W 002°59'0 0.0
2019-Jun-01 10:00N 53°24' W 002°59'0 0.0
2019-Jun-01 09:24N 53°24' W 002°59'0 0.0
2019-Jun-01 09:00N 53°24' W 002°59'0 0.0
2019-Jun-01 08:30N 53°24' W 002°59'0 0.0
2019-Jun-01 08:00N 53°24' W 002°59'0 0.0
2019-Jun-01 07:24N 53°24' W 002°59'0 0.0
2019-Jun-01 07:00N 53°24' W 002°59'0 0.0
2019-Jun-01 06:30N 53°24' W 002°59'0 0.0
2019-Jun-01 06:00N 53°24' W 002°59'0 0.0
2019-Jun-01 05:30N 53°24' W 002°59'0 0.0
2019-Jun-01 05:00N 53°24' W 002°59'0 0.0
2019-Jun-01 04:30N 53°24' W 002°59'0 0.0
2019-Jun-01 03:54N 53°24' W 002°59'0 0.0
2019-Jun-01 03:27N 53°24' W 002°59'0 0.0
2019-Jun-01 03:00N 53°24' W 002°59'0 0.0
2019-Jun-01 02:24N 53°24' W 002°59'0 0.0
2019-Jun-01 02:00N 53°24' W 002°59'0 0.0
2019-Jun-01 01:30N 53°24' W 002°59'0 0.0
2019-Jun-01 01:00N 53°24' W 002°59'0 0.0
2019-Jun-01 00:24N 53°24' W 002°59'0 0.0
2019-Jun-01 00:00N 53°24' W 002°59'0 0.0
2019-May-31 23:30N 53°24' W 002°59'0 0.0
2019-May-31 22:57N 53°24' W 002°59'0 0.0
2019-May-31 22:27N 53°24' W 002°59'0 0.0
2019-May-31 22:00N 53°24' W 002°59'0 0.0
2019-May-31 21:30N 53°24' W 002°59'0 0.0
2019-May-31 20:51N 53°24' W 002°59'0 0.0
2019-May-31 20:30N 53°24' W 002°59'0 0.0
2019-May-31 20:00N 53°24' W 002°59'0 0.0
2019-May-31 19:21N 53°24' W 002°59'0 0.0
2019-May-31 19:00N 53°24' W 002°59'0 0.0
2019-May-31 18:30N 53°24' W 002°59'0 0.0
2019-May-31 17:57N 53°24' W 002°59'0 0.0
2019-May-31 17:24N 53°24' W 002°59'0 0.0
2019-May-31 17:00N 53°24' W 002°59'0 0.0
2019-May-31 16:30N 53°24' W 002°59'0 0.0
2019-May-31 16:00N 53°24' W 002°59'0 0.0
2019-May-31 15:26N 53°24' W 002°59'0 0.0
2019-May-31 15:00N 53°24' W 002°59'0 0.0
2019-May-31 14:30N 53°24' W 002°59'0 0.0
2019-May-31 14:00N 53°24' W 002°59'0 0.0
2019-May-31 13:30N 53°24' W 002°59'0 0.0
2019-May-31 13:00N 53°24' W 002°59'0 0.0
2019-May-31 12:27N 53°24' W 002°59'0 0.0
2019-May-31 12:00N 53°24' W 002°59'0 0.0
2019-May-31 11:30N 53°24' W 002°59'0 0.0
2019-May-31 11:00N 53°24' W 002°59'0 0.0
2019-May-31 10:30N 53°24' W 002°59'0 0.0
2019-May-31 10:00N 53°24' W 002°59'0 0.0
2019-May-31 09:30N 53°24' W 002°59'0 0.0
2019-May-31 08:57N 53°24' W 002°59'0 0.0
2019-May-31 08:30N 53°24' W 002°59'0 0.0
2019-May-31 08:00N 53°24' W 002°59'0 0.0
2019-May-31 07:30N 53°24' W 002°59'0 0.0
2019-May-31 07:00N 53°24' W 002°59'0 0.0
2019-May-31 06:30N 53°24' W 002°59'0 0.0
2019-May-31 06:00N 53°24' W 002°59'0 0.0
2019-May-31 05:30N 53°24' W 002°59'0 0.0
2019-May-31 05:00N 53°24' W 002°59'0 0.0
2019-May-31 04:30N 53°24' W 002°59'0 0.0
2019-May-31 04:00N 53°24' W 002°59'0 0.0
2019-May-31 03:21N 53°24' W 002°59'0 0.0
2019-May-31 03:00N 53°24' W 002°59'0 0.0
2019-May-31 02:30N 53°24' W 002°59'0 0.0
2019-May-31 02:00N 53°24' W 002°59'0 0.0
2019-May-31 01:30N 53°24' W 002°59'0 0.0
2019-May-31 01:00N 53°24' W 002°59'0 0.0
2019-May-31 00:30N 53°24' W 002°59'0 0.0
2019-May-31 00:00N 53°24' W 002°59'0 0.0
2019-May-30 23:24N 53°24' W 002°59'0 0.0
2019-May-30 23:00N 53°24' W 002°59'0 0.0
2019-May-30 22:30N 53°24' W 002°59'0 0.0
2019-May-30 22:00N 53°24' W 002°59'0 0.0
2019-May-30 21:30N 53°24' W 002°59'0 0.0
2019-May-30 21:00N 53°24' W 002°59'0 0.0
2019-May-30 20:30N 53°24' W 002°59'0 0.0
2019-May-30 20:00N 53°24' W 002°59'0 0.0
2019-May-30 19:24N 53°24' W 002°59'0 0.0
2019-May-30 19:00N 53°24' W 002°59'0 0.0
2019-May-30 18:30N 53°24' W 002°59'0 0.0
2019-May-30 18:00N 53°24' W 002°59'0 0.0
2019-May-30 17:30N 53°24' W 002°59'0 0.0
2019-May-30 16:57N 53°24' W 002°59'0 0.0
2019-May-30 16:27N 53°24' W 002°59'0 0.0
2019-May-30 16:00N 53°24' W 002°59'0 0.0
2019-May-30 15:24N 53°24' W 002°59'0 0.0
2019-May-30 14:57N 53°24' W 002°59'0 0.0
2019-May-30 14:27N 53°24' W 002°59'0 0.0
2019-May-30 13:57N 53°24' W 002°59'0 0.0
2019-May-30 13:27N 53°24' W 002°59'0 0.0
2019-May-30 13:00N 53°24' W 002°59'0 0.0
2019-May-30 12:27N 53°24' W 002°59'0 0.0
2019-May-30 11:54N 53°24' W 002°59'0 0.0
2019-May-30 11:25N 53°24' W 002°59'0 0.0
2019-May-30 10:55N 53°24' W 002°59'0 0.0
2019-May-30 10:25N 53°24' W 002°59'0 0.0
2019-May-30 09:55N 53°24' W 002°59'0 0.0
2019-May-30 09:25N 53°24' W 002°59'0 0.0
2019-May-30 08:55N 53°24' W 002°59'0 0.0
2019-May-30 08:28N 53°24' W 002°59'0 0.0
2019-May-30 07:58N 53°24' W 002°59'0 0.0
2019-May-30 07:25N 53°24' W 002°59'0 0.0
2019-May-30 06:49N 53°24' W 002°59'0 0.0
2019-May-30 06:13N 53°24' W 002°59'0 0.0
2019-May-30 05:55N 53°24' W 002°59'0 0.0
2019-May-30 05:16N 53°24' W 002°59'0 0.0
2019-May-30 04:58N 53°24' W 002°59'0 0.0
2019-May-30 04:07N 53°24' W 002°59'0 0.0
2019-May-30 03:58N 53°24' W 002°59'0 0.0
2019-May-30 03:28N 53°24' W 002°59'0 0.0
2019-May-30 02:55N 53°24' W 002°59'0 0.0
2019-May-30 02:19N 53°24' W 002°59'0 0.0
2019-May-30 01:55N 53°24' W 002°59'0 0.0
2019-May-30 01:25N 53°24' W 002°59'0 0.0
2019-May-30 00:58N 53°24' W 002°59'0 0.0
2019-May-30 00:28N 53°24' W 002°59'0 0.0
2019-May-29 23:55N 53°24' W 002°59'0 0.0
2019-May-29 23:28N 53°24' W 002°59'0 0.0
2019-May-29 22:58N 53°24' W 002°59'0 0.0
2019-May-29 22:28N 53°24' W 002°59'0 0.0
2019-May-29 21:55N 53°24' W 002°59'0 0.0
2019-May-29 21:28N 53°24' W 002°59'0 0.0
2019-May-29 20:58N 53°24' W 002°59'0 0.0
2019-May-29 20:28N 53°24' W 002°59'0 0.0
2019-May-29 19:58N 53°24' W 002°59'0 0.0
2019-May-29 19:28N 53°24' W 002°59'0 0.0
2019-May-29 18:58N 53°24' W 002°59'0 0.0
2019-May-29 18:25N 53°24' W 002°59'0 0.0
2019-May-29 17:58N 53°24' W 002°59'0 0.0
2019-May-29 17:25N 53°24' W 002°59'0 0.0
2019-May-29 16:58N 53°24' W 002°59'0 0.0
2019-May-29 16:25N 53°24' W 002°59'0 0.0
2019-May-29 15:58N 53°24' W 002°59'0 0.0
2019-May-29 15:28N 53°24' W 002°59'0 0.0
2019-May-29 14:49N 53°24' W 002°59'0 0.0
2019-May-29 14:28N 53°24' W 002°59'0 0.0
2019-May-29 13:49N 53°24' W 002°59'0 0.0
2019-May-29 13:28N 53°24' W 002°59'0 0.0
2019-May-29 12:58N 53°24' W 002°59'0 0.0
2019-May-29 12:28N 53°24' W 002°59'0 0.0
2019-May-29 11:58N 53°24' W 002°59'0 0.0
2019-May-29 11:25N 53°24' W 002°59'0 0.0
2019-May-29 10:58N 53°24' W 002°59'0 0.0
2019-May-29 10:28N 53°24' W 002°59'0 0.0
2019-May-29 09:58N 53°24' W 002°59'0 0.0
2019-May-29 09:28N 53°24' W 002°59'0 0.0
2019-May-29 08:58N 53°24' W 002°59'0 0.0
2019-May-29 08:28N 53°24' W 002°59'0 0.0
2019-May-29 07:58N 53°24' W 002°59'0 0.0
2019-May-29 07:28N 53°24' W 002°59'0 0.0
2019-May-29 06:58N 53°24' W 002°59'0 0.0
2019-May-29 06:28N 53°24' W 002°59'0 0.0
2019-May-29 05:58N 53°24' W 002°59'0 0.0
2019-May-29 05:28N 53°24' W 002°59'0 0.0
2019-May-29 04:58N 53°24' W 002°59'0 0.0
2019-May-29 04:28N 53°24' W 002°59'0 0.0
2019-May-29 03:55N 53°24' W 002°59'0 0.0
2019-May-29 03:28N 53°24' W 002°59'0 0.0
2019-May-29 02:58N 53°24' W 002°59'0 0.0
2019-May-29 02:25N 53°24' W 002°59'0 0.0
2019-May-29 01:58N 53°24' W 002°59'0 0.0
2019-May-29 01:28N 53°24' W 002°59'0 0.0
2019-May-29 00:58N 53°24' W 002°59'0 0.0
2019-May-29 00:28N 53°24' W 002°59'0 0.0
2019-May-28 23:55N 53°24' W 002°59'0 0.0
2019-May-28 23:28N 53°24' W 002°59'0 0.0
2019-May-28 22:58N 53°24' W 002°59'0 0.0
2019-May-28 22:28N 53°24' W 002°59'0 0.0
2019-May-28 21:55N 53°24' W 002°59'0 0.0
2019-May-28 21:28N 53°24' W 002°59'0 0.0
2019-May-28 20:58N 53°24' W 002°59'0 0.0
2019-May-28 20:25N 53°24' W 002°59'0 0.0
2019-May-28 19:58N 53°24' W 002°59'0 0.0
2019-May-28 19:28N 53°24' W 002°59'0 0.0
2019-May-28 18:58N 53°24' W 002°59'0 0.0
2019-May-28 18:25N 53°24' W 002°59'0 0.0
2019-May-28 17:58N 53°24' W 002°59'0 0.0
2019-May-28 17:28N 53°24' W 002°59'0 0.0
2019-May-28 16:58N 53°24' W 002°59'0 0.0
2019-May-28 16:28N 53°24' W 002°59'0 0.0
2019-May-28 15:58N 53°24' W 002°59'0 0.0
2019-May-28 15:28N 53°24' W 002°59'0 0.0
2019-May-28 14:58N 53°24' W 002°59'0 0.0
2019-May-28 14:28N 53°24' W 002°59'0 0.0
2019-May-28 13:58N 53°24' W 002°59'0 0.0
2019-May-28 13:28N 53°24' W 002°59'0 0.0
2019-May-28 12:55N 53°24' W 002°59'0 0.0
2019-May-28 12:22N 53°24' W 002°59'0 0.0
2019-May-28 11:58N 53°24' W 002°59'0 0.0
2019-May-28 11:22N 53°24' W 002°59'0 0.0
2019-May-28 10:58N 53°24' W 002°59'0 0.0
2019-May-28 10:28N 53°24' W 002°59'0 0.0
2019-May-28 09:58N 53°24' W 002°59'0 0.0
2019-May-28 09:28N 53°24' W 002°59'0 0.0
2019-May-28 08:49N 53°24' W 002°59'0 0.0
2019-May-28 08:19N 53°24' W 002°59'0 0.0
2019-May-28 07:43N 53°24' W 002°59'0 0.0
2019-May-28 07:28N 53°24' W 002°59'0 0.0
2019-May-28 06:37N 53°24' W 002°59'0 0.0
2019-May-28 06:28N 53°24' W 002°59'0 0.0
2019-May-28 05:58N 53°24' W 002°59'0 0.0
2019-May-28 05:19N 53°24' W 002°59'0 0.0
2019-May-28 04:52N 53°24' W 002°59'0 0.0
2019-May-28 04:22N 53°24' W 002°59'0 0.0
2019-May-28 03:58N 53°24' W 002°59'0 0.0
2019-May-28 03:28N 53°24' W 002°59'0 0.0
2019-May-28 02:58N 53°24' W 002°59'0 0.0
2019-May-28 02:22N 53°24' W 002°59'0 0.0
2019-May-28 01:49N 53°24' W 002°59'0 0.0
2019-May-28 01:22N 53°24' W 002°59'0 0.0
2019-May-28 00:52N 53°24' W 002°59'0 0.0
2019-May-28 00:25N 53°24' W 002°59'0 0.0
2019-May-27 23:52N 53°24' W 002°59'0 0.0
2019-May-27 23:28N 53°24' W 002°59'0 0.0
2019-May-27 22:52N 53°24' W 002°59'0 0.0
2019-May-27 22:28N 53°24' W 002°59'0 0.0
2019-May-27 21:58N 53°24' W 002°59'0 0.0
2019-May-27 21:28N 53°24' W 002°59'0 0.0
2019-May-27 20:58N 53°24' W 002°59'0 0.0
2019-May-27 20:13N 53°24' W 002°59'0 0.0
2019-May-27 19:58N 53°24' W 002°59'0 0.0
2019-May-27 19:28N 53°24' W 002°59'0 0.0
2019-May-27 18:58N 53°24' W 002°59'0 0.0
2019-May-27 18:28N 53°24' W 002°59'0 0.0
2019-May-27 17:58N 53°24' W 002°59'0 0.0
2019-May-27 17:28N 53°24' W 002°59'0 0.0
2019-May-27 16:46N 53°24' W 002°59'0 0.0
2019-May-27 16:28N 53°24' W 002°59'0 0.0
2019-May-27 15:46N 53°24' W 002°59'0 0.0
2019-May-27 15:28N 53°24' W 002°59'0 0.0
2019-May-27 14:58N 53°24' W 002°59'0 0.0
2019-May-27 14:22N 53°24' W 002°59'0 0.0
2019-May-27 13:55N 53°24' W 002°59'0 0.0
2019-May-27 13:22N 53°24' W 002°59'0 0.0
2019-May-27 12:58N 53°24' W 002°59'0 0.0
2019-May-27 12:28N 53°24' W 002°59'0 0.0
2019-May-27 11:55N 53°24' W 002°59'0 0.0
2019-May-27 11:28N 53°24' W 002°59'0 0.0
2019-May-27 10:43N 53°24' W 002°59'0 0.0
2019-May-27 10:19N 53°24' W 002°59'0 0.0
2019-May-27 09:58N 53°24' W 002°59'0 0.0
2019-May-27 09:22N 53°24' W 002°59'0 0.0
2019-May-27 08:58N 53°24' W 002°59'0 0.0
2019-May-27 08:19N 53°24' W 002°59'0 0.0
2019-May-27 07:55N 53°24' W 002°59'0 0.0
2019-May-27 07:25N 53°24' W 002°59'0 0.0
2019-May-27 06:58N 53°24' W 002°59'0 0.0
2019-May-27 06:28N 53°24' W 002°59'0 0.0
2019-May-27 05:58N 53°24' W 002°59'0 0.0
2019-May-27 05:28N 53°24' W 002°59'0 0.0
2019-May-27 04:58N 53°24' W 002°59'0 0.0
2019-May-27 04:25N 53°24' W 002°59'0 0.0
2019-May-27 03:58N 53°24' W 002°59'0 0.0
2019-May-27 03:28N 53°24' W 002°59'0 0.0
2019-May-27 02:58N 53°24' W 002°59'0 0.0
2019-May-27 02:25N 53°24' W 002°59'0 0.0
2019-May-27 01:55N 53°24' W 002°59'0 0.0
2019-May-27 01:28N 53°24' W 002°59'0 0.0
2019-May-27 00:55N 53°24' W 002°59'0 0.0
2019-May-27 00:25N 53°24' W 002°59'0 0.0
2019-May-26 23:58N 53°24' W 002°59'0 0.0
2019-May-26 23:25N 53°24' W 002°59'0 0.0
2019-May-26 22:58N 53°24' W 002°59'0 0.0
2019-May-26 22:25N 53°24' W 002°59'0 0.0
2019-May-26 21:55N 53°24' W 002°59'0 0.0
2019-May-26 21:25N 53°24' W 002°59'0 0.0
2019-May-26 20:55N 53°24' W 002°59'0 0.0
2019-May-26 20:25N 53°24' W 002°59'0 0.0
2019-May-26 19:58N 53°24' W 002°59'0 0.0
2019-May-26 19:25N 53°24' W 002°59'0 0.0
2019-May-26 18:58N 53°24' W 002°59'0 0.0
2019-May-26 18:28N 53°24' W 002°59'0 0.0
2019-May-26 17:58N 53°24' W 002°59'0 0.0
2019-May-26 17:28N 53°24' W 002°59'0 0.0
2019-May-26 16:55N 53°24' W 002°59'0 0.0
2019-May-26 16:28N 53°24' W 002°59'0 0.0
2019-May-26 15:55N 53°24' W 002°59'0 0.0
2019-May-26 15:25N 53°24' W 002°59'0 0.0
2019-May-26 14:58N 53°24' W 002°59'0 0.0
2019-May-26 14:28N 53°24' W 002°59'0 0.0
2019-May-26 13:55N 53°24' W 002°59'0 0.0
2019-May-26 13:28N 53°24' W 002°59'0 0.0
2019-May-26 12:58N 53°24' W 002°59'0 0.0
2019-May-26 12:28N 53°24' W 002°59'0 0.0
2019-May-26 11:34N 53°24' W 002°59'0 0.0
2019-May-26 11:28N 53°24' W 002°59'0 0.0
2019-May-26 10:55N 53°24' W 002°59'0 0.0
2019-May-26 10:28N 53°24' W 002°59'0 0.0
2019-May-26 09:58N 53°24' W 002°59'0 0.0
2019-May-26 09:28N 53°24' W 002°59'0 0.0
2019-May-26 08:52N 53°24' W 002°59'0 0.0
2019-May-26 08:28N 53°24' W 002°59'0 0.0
2019-May-26 07:58N 53°24' W 002°59'0 0.0
2019-May-26 07:22N 53°24' W 002°59'0 0.0
2019-May-26 06:58N 53°24' W 002°59'0 0.0
2019-May-26 06:28N 53°24' W 002°59'0 0.0
2019-May-26 05:58N 53°24' W 002°59'0 0.0
2019-May-26 05:22N 53°24' W 002°59'0 0.0
2019-May-26 04:58N 53°24' W 002°59'0 0.0
2019-May-26 04:28N 53°24' W 002°59'0 0.0
2019-May-26 03:58N 53°24' W 002°59'0 0.0
2019-May-26 03:16N 53°24' W 002°59'0 0.0
2019-May-26 02:55N 53°24' W 002°59'0 0.0
2019-May-26 02:16N 53°24' W 002°59'0 0.0
2019-May-26 01:28N 53°24' W 002°59'0 0.0
2019-May-26 00:58N 53°24' W 002°59'0 0.0
2019-May-26 00:28N 53°24' W 002°59'0 0.0
2019-May-25 23:55N 53°24' W 002°59'  

Dump ship's entire track history